Terminal Aerodrome Forecast
Issued by NWS

Home | Current Version | Previous Version | Graphics & Text | Print | Product List | Glossary On
Versions: 1 2 3 4 5 6 7 8 9 10 11 12 13 14 15 16 17 18 19 20
000
FTUS43 KTOP 211900 AAA
TAFFOE
TAF AMD
KFOE 211903Z 2119/2218 35012G18KT P6SM FEW035 SCT100
      TEMPO 2119/2122 5SM -SHRA BKN035
     FM212300 35007KT P6SM FEW050
     FM221500 07006KT P6SM SKC=

USA.gov is the U.S. government's official web portal to all federal, state and local government web resources and services.